Time;durP1;ratioP1;P1;durP2;ratioP2;P2;SDS_P1;SDS_P2;PMS_P1;PMS_P2;Temp;Humidity;BMP_temperature;BMP_pressure;BME280_temperature;BME280_humidity;BME280_pressure;Samples;Min_cycle;Max_cycle;Signal;HPM_P1;HPM_P2
2023/10/13 00:00:33;;;;;;;12.77;4.85;;;;;;;;;;4964759;28;20031;-70
2023/10/13 00:03:00;;;;;;;13.13;4.95;;;;;;;;;;4962918;28;20125;-71
2023/10/13 00:05:27;;;;;;;14.35;5.45;;;;;;;;;;4965232;28;20033;-72
2023/10/13 00:07:54;;;;;;;10.45;5.30;;;;;;;;;;4964620;28;20023;-72
2023/10/13 00:10:21;;;;;;;11.38;4.68;;;;;;;;;;4961720;28;20022;-71
2023/10/13 00:12:49;;;;;;;10.38;4.53;;;;;;;;;;4963798;28;20141;-71
2023/10/13 00:15:20;;;;;;;11.00;4.88;;;;;;;;;;4962022;28;20533;-72
2023/10/13 00:17:47;;;;;;;12.75;5.28;;;;;;;;;;4962228;28;20038;-71
2023/10/13 00:20:16;;;;;;;11.32;5.03;;;;;;;;;;4964649;28;20018;-72
2023/10/13 00:22:44;;;;;;;10.48;4.22;;;;;;;;;;4957871;28;20153;-71
2023/10/13 00:25:19;;;;;;;13.27;5.00;;;;;;;;;;4961533;28;20027;-71
2023/10/13 00:27:47;;;;;;;10.85;4.93;;;;;;;;;;4962177;28;20035;-71
2023/10/13 00:30:24;;;;;;;10.93;4.95;;;;;;;;;;4962225;28;20025;-71
2023/10/13 00:32:57;;;;;;;10.98;5.05;;;;;;;;;;4965125;28;20031;-71
2023/10/13 00:35:36;;;;;;;14.18;5.30;;;;;;;;;;4961154;28;20035;-71
2023/10/13 00:38:23;;;;;;;12.73;4.70;;;;;;;;;;4975140;28;20088;-72
2023/10/13 00:40:51;;;;;;;14.95;5.18;;;;;;;;;;4963068;28;20026;-71
2023/10/13 00:45:54;;;;;;;12.02;4.95;;;;;;;;;;4966668;28;20662;-71
2023/10/13 00:48:33;;;;;;;11.27;5.15;;;;;;;;;;4975430;28;20022;-73
2023/10/13 00:51:02;;;;;;;13.50;5.10;;;;;;;;;;4958796;28;20054;-73
2023/10/13 00:53:30;;;;;;;12.18;4.85;;;;;;;;;;4963250;28;20222;-72
2023/10/13 00:55:56;;;;;;;14.20;5.40;;;;;;;;;;4964537;28;20607;-72
2023/10/13 00:58:22;;;;;;;12.75;4.90;;;;;;;;;;4959289;28;20026;-71
2023/10/13 01:00:56;;;;;;;11.07;4.75;;;;;;;;;;4965582;28;20304;-73
2023/10/13 01:03:26;;;;;;;11.23;4.95;;;;;;;;;;4964071;28;20683;-71
2023/10/13 01:05:58;;;;;;;15.32;5.25;;;;;;;;;;4962082;28;20093;-71
2023/10/13 01:08:37;;;;;;;12.85;5.18;;;;;;;;;;4978324;28;20169;-70
2023/10/13 01:11:06;;;;;;;13.45;5.10;;;;;;;;;;4976671;28;20373;-73
2023/10/13 01:13:36;;;;;;;12.57;5.35;;;;;;;;;;4979351;28;20068;-73
2023/10/13 01:16:02;;;;;;;11.70;5.38;;;;;;;;;;4957477;28;20412;-71
2023/10/13 01:18:28;;;;;;;13.35;5.32;;;;;;;;;;4965079;28;20116;-73
2023/10/13 01:20:58;;;;;;;15.38;5.00;;;;;;;;;;4961712;28;20372;-71
2023/10/13 01:23:28;;;;;;;12.20;4.80;;;;;;;;;;4978657;28;20117;-71
2023/10/13 01:25:56;;;;;;;15.65;5.03;;;;;;;;;;4963110;28;20030;-71
2023/10/13 01:28:22;;;;;;;13.27;5.20;;;;;;;;;;4958679;28;20373;-71
2023/10/13 01:30:52;;;;;;;15.43;5.55;;;;;;;;;;4963108;28;20163;-71
2023/10/13 01:33:36;;;;;;;14.90;5.30;;;;;;;;;;4956606;28;21419;-73
2023/10/13 01:36:06;;;;;;;13.88;5.35;;;;;;;;;;4960757;28;20072;-72
2023/10/13 01:38:33;;;;;;;11.50;4.95;;;;;;;;;;4964535;28;20030;-72
2023/10/13 01:41:00;;;;;;;15.20;5.50;;;;;;;;;;4976337;28;20052;-71
2023/10/13 01:43:26;;;;;;;16.55;4.95;;;;;;;;;;4965118;28;20521;-71
2023/10/13 01:45:53;;;;;;;16.30;5.70;;;;;;;;;;4964750;28;20206;-71
2023/10/13 01:48:21;;;;;;;11.73;5.32;;;;;;;;;;4957896;28;20540;-70
2023/10/13 01:50:48;;;;;;;12.57;5.47;;;;;;;;;;4964653;28;20041;-71
2023/10/13 01:53:17;;;;;;;14.73;5.40;;;;;;;;;;4961495;28;20090;-71
2023/10/13 01:55:44;;;;;;;12.88;5.68;;;;;;;;;;4967061;28;20872;-71
2023/10/13 01:58:15;;;;;;;13.68;5.25;;;;;;;;;;4958142;28;20011;-73
2023/10/13 02:00:45;;;;;;;12.60;5.38;;;;;;;;;;4960459;28;20127;-71
2023/10/13 02:03:15;;;;;;;13.50;5.65;;;;;;;;;;4955430;28;20256;-71
2023/10/13 02:05:46;;;;;;;15.73;5.72;;;;;;;;;;4974544;28;20056;-71
2023/10/13 02:08:17;;;;;;;15.38;6.15;;;;;;;;;;4957978;28;20049;-71
2023/10/13 02:10:44;;;;;;;12.25;5.60;;;;;;;;;;4976790;28;20315;-71
2023/10/13 02:13:17;;;;;;;14.05;6.32;;;;;;;;;;4960964;28;20030;-73
2023/10/13 02:15:48;;;;;;;13.10;5.05;;;;;;;;;;4963097;28;20065;-73
2023/10/13 02:19:04;;;;;;;17.05;5.60;;;;;;;;;;4961804;28;20069;-73
2023/10/13 02:21:14;;;;;;;12.25;5.30;;;;;;;;;;4949324;28;20049;-73
2023/10/13 02:23:59;;;;;;;11.32;4.63;;;;;;;;;;4962239;28;20022;-71
2023/10/13 02:26:31;;;;;;;14.50;5.80;;;;;;;;;;4962748;28;20132;-71
2023/10/13 02:29:07;;;;;;;13.07;5.63;;;;;;;;;;4962619;28;20117;-71
2023/10/13 02:31:35;;;;;;;12.10;5.13;;;;;;;;;;4979714;28;20070;-71
2023/10/13 02:34:06;;;;;;;16.67;5.70;;;;;;;;;;4962115;28;20104;-71
2023/10/13 02:36:46;;;;;;;13.35;5.40;;;;;;;;;;4965485;28;20588;-71
2023/10/13 02:39:13;;;;;;;12.48;5.20;;;;;;;;;;4959322;28;20105;-71
2023/10/13 02:41:41;;;;;;;9.88;4.00;;;;;;;;;;4964979;28;20072;-71
2023/10/13 02:44:10;;;;;;;10.80;4.78;;;;;;;;;;4960138;28;20491;-71
2023/10/13 02:46:39;;;;;;;12.43;5.50;;;;;;;;;;4963762;28;20031;-71
2023/10/13 02:49:11;;;;;;;11.63;5.20;;;;;;;;;;4967050;28;20305;-71
2023/10/13 02:51:41;;;;;;;12.88;5.05;;;;;;;;;;4970783;28;20022;-71
2023/10/13 02:54:18;;;;;;;12.70;5.70;;;;;;;;;;4979975;28;20149;-70
2023/10/13 02:56:56;;;;;;;10.52;4.63;;;;;;;;;;4983388;28;20064;-73
2023/10/13 02:59:46;;;;;;;11.70;4.47;;;;;;;;;;4963410;28;20465;-72
2023/10/13 03:02:29;;;;;;;13.50;5.57;;;;;;;;;;4963317;28;20175;-71
2023/10/13 03:05:17;;;;;;;12.95;5.55;;;;;;;;;;4965550;28;20069;-71
2023/10/13 03:07:43;;;;;;;11.43;4.80;;;;;;;;;;4964965;28;20034;-66
2023/10/13 03:10:10;;;;;;;10.60;4.85;;;;;;;;;;4983166;28;20034;-68
2023/10/13 03:12:36;;;;;;;10.18;4.82;;;;;;;;;;4981215;28;20461;-67
2023/10/13 03:17:43;;;;;;;11.15;4.85;;;;;;;;;;4967455;28;20530;-67
2023/10/13 03:20:13;;;;;;;11.40;5.20;;;;;;;;;;4964964;28;20049;-68
2023/10/13 03:22:39;;;;;;;10.80;5.30;;;;;;;;;;4976348;28;20041;-68
2023/10/13 03:25:08;;;;;;;12.73;5.78;;;;;;;;;;4969960;28;20057;-69
2023/10/13 03:28:11;;;;;;;12.10;6.03;;;;;;;;;;4964733;28;20763;-66
2023/10/13 03:30:47;;;;;;;13.05;5.80;;;;;;;;;;4965108;28;20149;-68
2023/10/13 03:33:14;;;;;;;13.23;6.30;;;;;;;;;;4964760;28;20846;-68
2023/10/13 03:35:41;;;;;;;10.57;4.53;;;;;;;;;;4967373;28;20121;-68
2023/10/13 03:38:16;;;;;;;12.65;5.20;;;;;;;;;;4961572;28;20631;-68
2023/10/13 03:40:48;;;;;;;11.40;4.80;;;;;;;;;;4984589;28;20120;-68
2023/10/13 03:43:16;;;;;;;11.90;5.07;;;;;;;;;;4966458;28;20061;-68
2023/10/13 03:45:43;;;;;;;11.90;5.05;;;;;;;;;;4968765;28;20034;-68
2023/10/13 03:51:14;;;;;;;12.93;5.32;;;;;;;;;;4967584;28;20128;-68
2023/10/13 03:53:53;;;;;;;11.60;4.80;;;;;;;;;;4967998;28;20026;-66
2023/10/13 03:56:38;;;;;;;11.57;4.20;;;;;;;;;;4967402;28;20065;-67
2023/10/13 03:59:09;;;;;;;11.65;4.78;;;;;;;;;;4964582;28;20438;-67
2023/10/13 04:05:09;;;;;;;10.80;4.13;;;;;;;;;;4964608;28;20786;-67
2023/10/13 04:17:29;;;;;;;10.38;4.68;;;;;;;;;;4960755;28;21688;-68
2023/10/13 04:41:57;;;;;;;12.48;4.78;;;;;;;;;;4964832;28;20038;-67
2023/10/13 04:49:28;;;;;;;12.05;5.68;;;;;;;;;;4961373;28;20576;-67
2023/10/13 04:52:12;;;;;;;9.43;4.18;;;;;;;;;;4963082;28;20563;-67
2023/10/13 05:49:09;;;;;;;11.23;4.57;;;;;;;;;;4965216;28;20057;-68
2023/10/13 06:29:37;;;;;;;14.40;4.47;;;;;;;;;;4963342;28;20136;-67
2023/10/13 06:32:10;;;;;;;9.93;3.75;;;;;;;;;;4962246;28;20448;-67
2023/10/13 06:34:46;;;;;;;12.85;4.85;;;;;;;;;;4964598;28;20509;-67
2023/10/13 06:37:36;;;;;;;13.50;5.18;;;;;;;;;;4961515;28;20220;-66
2023/10/13 06:40:07;;;;;;;18.45;6.22;;;;;;;;;;4962471;28;20062;-67
2023/10/13 06:42:34;;;;;;;12.48;4.57;;;;;;;;;;4962498;28;20400;-67
2023/10/13 06:45:20;;;;;;;13.43;4.70;;;;;;;;;;4962737;28;20937;-66
2023/10/13 06:47:48;;;;;;;18.50;5.50;;;;;;;;;;4963284;28;20589;-67
2023/10/13 06:50:15;;;;;;;13.88;5.35;;;;;;;;;;4962320;28;20018;-67
2023/10/13 06:52:42;;;;;;;14.60;5.38;;;;;;;;;;4962364;28;20072;-67
2023/10/13 06:55:17;;;;;;;14.15;5.07;;;;;;;;;;4961226;28;20037;-66
2023/10/13 06:57:43;;;;;;;12.98;4.57;;;;;;;;;;4965336;28;20057;-67
2023/10/13 07:00:19;;;;;;;12.07;4.95;;;;;;;;;;4978030;28;20038;-67
2023/10/13 07:02:46;;;;;;;11.95;5.40;;;;;;;;;;4961649;28;20104;-67
2023/10/13 07:05:14;;;;;;;13.15;5.18;;;;;;;;;;4977490;28;20539;-67
2023/10/13 07:07:40;;;;;;;11.07;4.80;;;;;;;;;;4963674;28;20093;-67
2023/10/13 07:10:16;;;;;;;9.85;4.40;;;;;;;;;;4956814;28;20023;-67
2023/10/13 07:12:49;;;;;;;11.75;4.63;;;;;;;;;;4977240;28;20089;-67
2023/10/13 07:17:45;;;;;;;13.18;5.13;;;;;;;;;;4965295;28;20050;-67
2023/10/13 07:20:15;;;;;;;14.27;4.93;;;;;;;;;;4959558;28;20034;-67
2023/10/13 07:25:32;;;;;;;14.82;4.95;;;;;;;;;;4961881;28;20149;-67
2023/10/13 07:27:59;;;;;;;12.15;4.57;;;;;;;;;;4976854;28;20027;-67
2023/10/13 07:30:26;;;;;;;11.10;4.47;;;;;;;;;;4963759;28;20206;-67
2023/10/13 07:32:53;;;;;;;14.73;5.30;;;;;;;;;;4962775;28;20684;-67
2023/10/13 07:35:24;;;;;;;10.95;4.38;;;;;;;;;;4963540;28;20104;-67
2023/10/13 07:37:54;;;;;;;11.85;4.35;;;;;;;;;;4967635;28;20136;-67
2023/10/13 07:43:00;;;;;;;12.75;4.70;;;;;;;;;;4968371;28;20053;-67
2023/10/13 07:45:35;;;;;;;14.85;5.43;;;;;;;;;;4969515;28;20104;-67
2023/10/13 07:48:07;;;;;;;13.00;5.45;;;;;;;;;;4977489;28;20073;-67
2023/10/13 07:50:34;;;;;;;13.85;5.35;;;;;;;;;;4966269;28;20049;-67
2023/10/13 07:53:19;;;;;;;11.10;5.03;;;;;;;;;;4961610;28;20689;-67
2023/10/13 07:55:49;;;;;;;15.90;5.45;;;;;;;;;;4965931;28;20026;-67
2023/10/13 07:58:15;;;;;;;14.25;5.70;;;;;;;;;;4963637;28;20279;-67
2023/10/13 08:08:39;;;;;;;20.20;6.50;;;;;;;;;;4964923;28;20576;-67
2023/10/13 08:11:30;;;;;;;13.87;5.60;;;;;;;;;;4963030;28;20037;-68
2023/10/13 08:14:00;;;;;;;23.17;6.80;;;;;;;;;;4968139;28;20053;-67
2023/10/13 08:19:15;;;;;;;16.25;5.70;;;;;;;;;;4963462;28;20045;-69
2023/10/13 08:21:49;;;;;;;14.90;5.97;;;;;;;;;;4963813;28;20497;-68
2023/10/13 08:24:16;;;;;;;14.75;5.57;;;;;;;;;;4960184;28;20485;-67
2023/10/13 08:27:33;;;;;;;13.90;5.43;;;;;;;;;;4965495;28;20105;-67
2023/10/13 08:37:28;;;;;;;14.55;5.25;;;;;;;;;;4964620;28;20124;-67
2023/10/13 08:40:20;;;;;;;11.77;5.22;;;;;;;;;;4966136;28;20513;-67
2023/10/13 08:45:52;;;;;;;15.43;5.28;;;;;;;;;;4961084;28;20141;-67
2023/10/13 08:48:08;;;;;;;20.97;4.93;;;;;;;;;;4961880;28;20042;-67
2023/10/13 08:56:31;;;;;;;13.30;4.30;;;;;;;;;;4966140;28;20038;-68
2023/10/13 09:04:44;;;;;;;13.60;4.32;;;;;;;;;;4960037;28;20045;-68
2023/10/13 09:07:15;;;;;;;15.45;5.00;;;;;;;;;;4957363;28;20325;-66
2023/10/13 09:12:13;;;;;;;12.60;4.00;;;;;;;;;;4961744;28;20868;-67
2023/10/13 09:14:56;;;;;;;12.55;5.32;;;;;;;;;;4968569;28;20101;-68
2023/10/13 09:17:35;;;;;;;11.25;4.60;;;;;;;;;;4963481;28;20121;-67
2023/10/13 09:20:45;;;;;;;13.80;5.22;;;;;;;;;;4967554;28;20057;-70
2023/10/13 09:23:19;;;;;;;11.13;4.72;;;;;;;;;;4958338;28;20042;-70
2023/10/13 09:25:53;;;;;;;11.85;4.68;;;;;;;;;;4968851;28;20675;-69
2023/10/13 09:28:21;;;;;;;13.00;5.00;;;;;;;;;;4966781;28;20841;-69
2023/10/13 09:30:56;;;;;;;13.18;4.90;;;;;;;;;;4967763;28;20039;-68
2023/10/13 09:33:33;;;;;;;14.10;4.85;;;;;;;;;;4962695;28;20022;-69
2023/10/13 09:36:04;;;;;;;13.18;4.95;;;;;;;;;;4962569;28;20171;-69
2023/10/13 09:38:33;;;;;;;13.07;4.68;;;;;;;;;;4963622;28;20029;-68
2023/10/13 09:41:17;;;;;;;9.65;3.58;;;;;;;;;;4965424;28;20108;-69
2023/10/13 09:43:44;;;;;;;12.80;4.03;;;;;;;;;;4965291;28;20239;-68
2023/10/13 09:46:17;;;;;;;10.38;3.70;;;;;;;;;;4959573;28;20034;-68
2023/10/13 09:48:47;;;;;;;11.18;4.28;;;;;;;;;;4964827;28;20115;-68
2023/10/13 09:51:14;;;;;;;13.55;4.13;;;;;;;;;;4965118;28;20450;-68
2023/10/13 09:53:50;;;;;;;13.20;4.00;;;;;;;;;;4963451;28;20026;-69
2023/10/13 09:56:23;;;;;;;10.93;4.25;;;;;;;;;;4957144;28;20066;-68
2023/10/13 09:58:56;;;;;;;12.35;4.20;;;;;;;;;;4964726;28;20128;-68
2023/10/13 10:01:31;;;;;;;13.88;3.90;;;;;;;;;;4963617;28;20603;-68
2023/10/13 10:04:18;;;;;;;10.32;4.00;;;;;;;;;;4965536;28;20035;-68
2023/10/13 10:06:59;;;;;;;12.50;4.10;;;;;;;;;;4985643;28;20200;-68
2023/10/13 10:09:36;;;;;;;11.00;4.03;;;;;;;;;;4968909;28;20026;-68
2023/10/13 10:12:21;;;;;;;10.95;4.20;;;;;;;;;;4965470;28;20027;-68
2023/10/13 10:15:05;;;;;;;13.45;4.38;;;;;;;;;;4967767;28;20049;-68
2023/10/13 10:17:39;;;;;;;9.68;3.53;;;;;;;;;;4982241;28;20042;-68
2023/10/13 10:20:14;;;;;;;11.75;3.67;;;;;;;;;;4962876;28;20022;-68
2023/10/13 10:22:44;;;;;;;9.90;3.83;;;;;;;;;;4981425;28;20718;-68
2023/10/13 10:25:24;;;;;;;10.02;3.67;;;;;;;;;;4963480;28;20371;-68
2023/10/13 10:27:57;;;;;;;10.60;3.38;;;;;;;;;;4975510;28;20039;-68
2023/10/13 10:30:27;;;;;;;17.65;4.18;;;;;;;;;;4962893;28;20897;-68
2023/10/13 10:33:00;;;;;;;11.52;3.90;;;;;;;;;;4965485;28;20374;-68
2023/10/13 10:35:32;;;;;;;9.60;3.75;;;;;;;;;;4964021;28;20220;-68
2023/10/13 10:38:32;;;;;;;12.48;3.95;;;;;;;;;;4961484;28;20042;-67
2023/10/13 10:41:00;;;;;;;11.48;3.45;;;;;;;;;;4965042;28;20026;-67
2023/10/13 10:43:41;;;;;;;10.93;3.95;;;;;;;;;;4964944;28;20054;-68
2023/10/13 10:46:18;;;;;;;14.05;3.95;;;;;;;;;;4958134;28;20041;-68
2023/10/13 10:48:47;;;;;;;17.08;4.18;;;;;;;;;;4965613;28;20105;-67
2023/10/13 10:51:21;;;;;;;13.13;4.07;;;;;;;;;;4963282;28;20405;-68
2023/10/13 10:53:51;;;;;;;12.75;3.80;;;;;;;;;;4962523;28;20070;-68
2023/10/13 10:56:24;;;;;;;13.77;4.05;;;;;;;;;;4958234;28;20042;-68
2023/10/13 10:58:56;;;;;;;13.00;3.83;;;;;;;;;;4965026;28;20501;-68
2023/10/13 11:01:33;;;;;;;12.85;3.80;;;;;;;;;;4964309;28;20540;-67
2023/10/13 11:07:06;;;;;;;12.90;4.03;;;;;;;;;;4933835;28;20031;-68
2023/10/13 11:09:45;;;;;;;10.73;3.50;;;;;;;;;;4940361;28;20611;-68
2023/10/13 11:12:15;;;;;;;9.18;3.65;;;;;;;;;;4927155;28;21083;-67
2023/10/13 11:14:46;;;;;;;12.38;4.57;;;;;;;;;;4942973;28;20034;-67
2023/10/13 11:17:21;;;;;;;10.38;3.92;;;;;;;;;;4936369;28;20126;-68
2023/10/13 11:19:48;;;;;;;13.65;4.18;;;;;;;;;;4926119;28;20125;-68
2023/10/13 11:22:36;;;;;;;10.63;3.90;;;;;;;;;;4938371;28;20293;-67
2023/10/13 11:25:14;;;;;;;12.57;4.13;;;;;;;;;;4919941;28;20050;-69
2023/10/13 11:30:40;;;;;;;11.45;3.95;;;;;;;;;;4937248;28;20492;-67
2023/10/13 11:33:10;;;;;;;9.52;3.42;;;;;;;;;;4935979;28;20126;-68
2023/10/13 11:38:27;;;;;;;13.63;4.05;;;;;;;;;;4937043;28;20653;-68
2023/10/13 11:52:16;;;;;;;11.30;3.85;;;;;;;;;;4866339;29;20190;-70
2023/10/13 11:54:42;;;;;;;9.60;3.80;;;;;;;;;;4868157;29;20610;-69
2023/10/13 11:57:09;;;;;;;10.93;3.97;;;;;;;;;;4864370;29;20459;-67
2023/10/13 11:59:44;;;;;;;10.75;3.80;;;;;;;;;;4868741;29;20150;-67
2023/10/13 12:12:20;;;;;;;13.77;3.88;;;;;;;;;;4865530;29;19926;-68
2023/10/13 12:14:52;;;;;;;14.30;4.10;;;;;;;;;;4868232;29;20555;-68
2023/10/13 12:17:25;;;;;;;14.23;3.80;;;;;;;;;;4862768;29;20475;-69
2023/10/13 12:19:54;;;;;;;11.52;3.42;;;;;;;;;;4866558;29;20185;-68
2023/10/13 12:22:28;;;;;;;11.82;3.97;;;;;;;;;;4860117;29;20120;-68
2023/10/13 12:24:57;;;;;;;12.52;3.40;;;;;;;;;;4864729;29;20460;-69
2023/10/13 12:27:23;;;;;;;13.63;3.60;;;;;;;;;;4961399;28;20026;-68
2023/10/13 12:29:53;;;;;;;14.70;4.50;;;;;;;;;;4976547;28;20337;-68
2023/10/13 12:32:24;;;;;;;14.05;4.45;;;;;;;;;;4960366;28;20759;-69
2023/10/13 12:34:57;;;;;;;13.07;4.07;;;;;;;;;;4964658;28;20404;-69
2023/10/13 12:53:55;;;;;;;12.70;4.33;;;;;;;;;;4964117;28;20038;-68
2023/10/13 12:56:28;;;;;;;10.90;3.95;;;;;;;;;;4959668;28;20027;-68
2023/10/13 12:58:55;;;;;;;12.30;3.60;;;;;;;;;;4962702;28;20804;-68
2023/10/13 13:01:32;;;;;;;11.25;4.00;;;;;;;;;;4961513;28;20048;-68
2023/10/13 13:04:01;;;;;;;14.70;3.80;;;;;;;;;;4962413;28;20042;-68
2023/10/13 13:06:31;;;;;;;13.02;3.90;;;;;;;;;;4964714;28;20058;-68
2023/10/13 13:08:59;;;;;;;11.95;4.10;;;;;;;;;;4980135;28;20105;-68
2023/10/13 13:11:26;;;;;;;11.18;3.60;;;;;;;;;;4980971;28;20034;-69
2023/10/13 13:13:54;;;;;;;11.75;3.97;;;;;;;;;;4962760;28;20430;-67
2023/10/13 13:16:23;;;;;;;13.52;4.03;;;;;;;;;;4963499;28;20038;-68
2023/10/13 13:18:50;;;;;;;15.07;4.35;;;;;;;;;;4963592;28;20272;-68
2023/10/13 13:21:27;;;;;;;10.48;3.67;;;;;;;;;;4963763;28;20040;-68
2023/10/13 13:23:56;;;;;;;11.88;4.35;;;;;;;;;;4965929;28;20030;-68
2023/10/13 13:26:23;;;;;;;14.88;4.22;;;;;;;;;;4963125;28;20608;-68
2023/10/13 13:28:52;;;;;;;13.45;3.95;;;;;;;;;;4979697;28;20022;-66
2023/10/13 13:31:19;;;;;;;12.55;4.03;;;;;;;;;;4960911;28;20030;-68
2023/10/13 13:33:45;;;;;;;13.40;4.13;;;;;;;;;;4964060;28;20037;-68
2023/10/13 13:36:15;;;;;;;12.20;4.07;;;;;;;;;;4977262;28;20045;-69
2023/10/13 13:38:45;;;;;;;14.95;4.20;;;;;;;;;;4964829;28;20072;-69
2023/10/13 13:41:18;;;;;;;14.27;3.85;;;;;;;;;;4962196;28;20040;-69
2023/10/13 13:43:55;;;;;;;14.90;4.03;;;;;;;;;;4965516;28;20337;-68
2023/10/13 13:46:29;;;;;;;9.95;3.75;;;;;;;;;;4957679;28;20030;-68
2023/10/13 13:48:59;;;;;;;14.15;4.15;;;;;;;;;;4962786;28;20027;-68
2023/10/13 13:51:27;;;;;;;11.02;4.50;;;;;;;;;;4963590;28;20038;-69
2023/10/13 13:53:54;;;;;;;11.15;4.07;;;;;;;;;;4977567;28;20655;-68
2023/10/13 13:56:20;;;;;;;13.30;3.97;;;;;;;;;;4962509;28;20030;-70
2023/10/13 13:58:47;;;;;;;10.93;3.80;;;;;;;;;;4978636;28;20092;-69
2023/10/13 14:01:18;;;;;;;11.38;3.53;;;;;;;;;;4973520;28;20061;-70
2023/10/13 14:03:46;;;;;;;13.35;3.80;;;;;;;;;;4959813;28;20404;-68
2023/10/13 14:06:34;;;;;;;12.50;3.58;;;;;;;;;;4978022;28;20034;-69
2023/10/13 14:09:44;;;;;;;10.63;3.80;;;;;;;;;;4963173;28;20084;-69
2023/10/13 14:14:35;;;;;;;10.52;4.03;;;;;;;;;;4962342;28;20061;-68
2023/10/13 14:17:07;;;;;;;12.13;3.95;;;;;;;;;;4963634;28;20339;-69
2023/10/13 14:19:34;;;;;;;15.43;4.00;;;;;;;;;;4961429;28;20029;-69
2023/10/13 14:22:12;;;;;;;9.88;3.67;;;;;;;;;;4961185;28;20548;-70
2023/10/13 14:24:51;;;;;;;11.10;3.78;;;;;;;;;;4963097;28;20113;-68
2023/10/13 14:27:22;;;;;;;12.32;3.80;;;;;;;;;;4960171;28;20026;-70
2023/10/13 14:29:52;;;;;;;9.20;3.55;;;;;;;;;;4961879;28;20323;-67
2023/10/13 14:32:19;;;;;;;10.90;3.55;;;;;;;;;;4962134;28;22588;-70
2023/10/13 14:34:54;;;;;;;11.77;3.80;;;;;;;;;;4962920;28;20581;-68
2023/10/13 14:37:41;;;;;;;;;;;;;;;;;;4958297;28;20045;-68
2023/10/13 14:40:11;;;;;;;;;;;;;;;;;;4959597;28;19917;-68
2023/10/13 14:42:40;;;;;;;16.35;4.18;;;;;;;;;;4979223;28;19940;-67
2023/10/13 14:45:13;;;;;;;12.73;4.00;;;;;;;;;;4958985;28;20057;-68
2023/10/13 14:47:40;;;;;;;11.68;3.63;;;;;;;;;;4979506;28;20397;-68
2023/10/13 14:50:06;;;;;;;8.70;3.50;;;;;;;;;;4976123;28;20367;-67
2023/10/13 14:52:33;;;;;;;11.65;3.70;;;;;;;;;;4961522;28;20053;-69
2023/10/13 14:54:59;;;;;;;11.75;3.72;;;;;;;;;;4962278;28;20030;-68
2023/10/13 14:57:25;;;;;;;9.23;3.28;;;;;;;;;;4957960;28;21732;-67
2023/10/13 14:59:55;;;;;;;11.90;3.70;;;;;;;;;;4960829;28;20030;-68
2023/10/13 15:02:21;;;;;;;11.93;4.03;;;;;;;;;;4960536;28;20502;-68
2023/10/13 15:04:49;;;;;;;11.57;4.10;;;;;;;;;;4963318;28;20492;-68
2023/10/13 15:07:16;;;;;;;10.38;3.85;;;;;;;;;;4960045;28;20038;-68
2023/10/13 15:09:42;;;;;;;11.10;3.78;;;;;;;;;;4978238;28;20081;-69
2023/10/13 15:12:12;;;;;;;10.02;3.60;;;;;;;;;;4975988;28;20125;-68
2023/10/13 15:14:39;;;;;;;13.63;4.05;;;;;;;;;;4961128;28;20100;-68
2023/10/13 15:17:06;;;;;;;11.00;3.53;;;;;;;;;;4960718;28;20022;-68
2023/10/13 15:19:38;;;;;;;9.57;3.53;;;;;;;;;;4964168;28;20033;-69
2023/10/13 15:22:12;;;;;;;10.60;3.78;;;;;;;;;;4958674;28;20120;-68
2023/10/13 15:24:45;;;;;;;12.23;3.85;;;;;;;;;;4959857;28;20548;-68
2023/10/13 15:27:11;;;;;;;11.98;3.88;;;;;;;;;;4958708;28;20133;-69
2023/10/13 15:29:37;;;;;;;9.90;3.53;;;;;;;;;;4964271;28;20026;-70
2023/10/13 15:32:05;;;;;;;12.90;3.85;;;;;;;;;;4959033;28;20337;-69
2023/10/13 15:34:32;;;;;;;11.20;3.92;;;;;;;;;;4965118;28;20113;-70
2023/10/13 15:37:00;;;;;;;13.15;4.10;;;;;;;;;;4961188;28;20058;-70
2023/10/13 15:39:31;;;;;;;9.73;3.95;;;;;;;;;;4960967;28;20039;-70
2023/10/13 15:42:02;;;;;;;14.15;3.88;;;;;;;;;;4962865;28;20034;-69
2023/10/13 15:44:31;;;;;;;10.68;3.95;;;;;;;;;;4964084;28;20045;-69
2023/10/13 15:46:59;;;;;;;10.80;3.75;;;;;;;;;;4962261;28;20477;-68
2023/10/13 15:49:28;;;;;;;10.23;3.92;;;;;;;;;;4963927;28;20475;-69
2023/10/13 15:51:57;;;;;;;10.30;3.88;;;;;;;;;;4966041;28;20030;-69
2023/10/13 15:54:23;;;;;;;11.02;3.75;;;;;;;;;;4961449;28;20046;-68
2023/10/13 15:56:54;;;;;;;12.50;3.75;;;;;;;;;;4967365;28;20060;-68
2023/10/13 15:59:22;;;;;;;9.70;3.83;;;;;;;;;;4965267;28;20026;-68
2023/10/13 16:01:54;;;;;;;10.18;3.88;;;;;;;;;;4967077;28;20322;-68
2023/10/13 16:04:20;;;;;;;14.10;3.88;;;;;;;;;;4963280;28;20868;-68
2023/10/13 16:06:50;;;;;;;11.63;4.18;;;;;;;;;;4979304;28;20062;-68
2023/10/13 16:09:25;;;;;;;11.68;3.70;;;;;;;;;;4961334;28;20022;-68
2023/10/13 16:11:52;;;;;;;12.00;4.00;;;;;;;;;;4967419;28;20034;-68
2023/10/13 16:14:18;;;;;;;10.80;3.90;;;;;;;;;;4960898;28;20097;-68
2023/10/13 16:16:49;;;;;;;10.13;3.97;;;;;;;;;;4963255;28;20042;-68
2023/10/13 16:19:21;;;;;;;8.68;3.47;;;;;;;;;;4962544;28;20038;-67
2023/10/13 16:21:47;;;;;;;9.52;4.18;;;;;;;;;;4967696;28;20096;-67
2023/10/13 16:24:17;;;;;;;15.35;3.95;;;;;;;;;;4964121;28;20769;-68
2023/10/13 16:26:55;;;;;;;12.77;4.47;;;;;;;;;;4963801;28;20046;-67
2023/10/13 16:29:21;;;;;;;11.48;4.13;;;;;;;;;;4962763;28;20051;-69
2023/10/13 16:31:48;;;;;;;11.13;4.05;;;;;;;;;;4963961;28;20033;-71
2023/10/13 16:34:15;;;;;;;13.60;4.38;;;;;;;;;;4978881;28;20072;-68
2023/10/13 16:36:43;;;;;;;13.13;4.13;;;;;;;;;;4964730;28;20129;-68
2023/10/13 16:39:10;;;;;;;12.80;4.38;;;;;;;;;;4962769;28;20484;-67
2023/10/13 16:41:36;;;;;;;12.27;4.15;;;;;;;;;;4964898;28;20058;-68
2023/10/13 16:44:09;;;;;;;13.25;4.32;;;;;;;;;;4977817;28;20057;-67
2023/10/13 16:46:36;;;;;;;13.27;4.28;;;;;;;;;;4964563;28;20030;-68
2023/10/13 16:49:02;;;;;;;15.52;4.65;;;;;;;;;;4962565;28;20101;-67
2023/10/13 16:51:29;;;;;;;14.65;4.80;;;;;;;;;;4966816;28;20045;-67
2023/10/13 16:53:58;;;;;;;13.50;4.95;;;;;;;;;;4981889;28;20905;-67
2023/10/13 16:56:25;;;;;;;12.32;4.28;;;;;;;;;;4965649;28;20042;-67
2023/10/13 16:58:54;;;;;;;11.45;4.35;;;;;;;;;;4964859;28;20030;-70
2023/10/13 17:01:21;;;;;;;14.93;4.40;;;;;;;;;;4958230;28;20211;-67
2023/10/13 17:03:49;;;;;;;15.93;5.05;;;;;;;;;;4963338;28;20031;-67
2023/10/13 17:06:16;;;;;;;12.90;4.40;;;;;;;;;;4977205;28;20404;-67
2023/10/13 17:08:42;;;;;;;10.45;4.60;;;;;;;;;;4979912;28;20022;-68
2023/10/13 17:11:15;;;;;;;12.02;4.35;;;;;;;;;;4960844;28;20266;-69
2023/10/13 17:13:43;;;;;;;11.35;5.05;;;;;;;;;;4980386;28;20038;-68
2023/10/13 17:16:13;;;;;;;13.68;4.88;;;;;;;;;;4961610;28;20082;-68
2023/10/13 17:18:39;;;;;;;13.20;4.15;;;;;;;;;;4964284;28;20070;-69
2023/10/13 17:21:13;;;;;;;16.00;4.72;;;;;;;;;;4958109;28;20038;-69
2023/10/13 17:23:40;;;;;;;13.48;4.75;;;;;;;;;;4961536;28;20355;-69
2023/10/13 17:26:06;;;;;;;12.35;4.95;;;;;;;;;;4960586;28;20038;-69
2023/10/13 17:28:33;;;;;;;12.45;4.60;;;;;;;;;;4964366;28;20125;-69
2023/10/13 17:31:00;;;;;;;11.75;4.63;;;;;;;;;;4963337;28;20037;-70
2023/10/13 17:33:26;;;;;;;12.85;5.03;;;;;;;;;;4980196;28;20061;-69
2023/10/13 17:35:52;;;;;;;16.80;5.13;;;;;;;;;;4962804;28;20698;-69
2023/10/13 17:38:18;;;;;;;11.93;5.03;;;;;;;;;;4963287;28;20054;-69
2023/10/13 17:40:45;;;;;;;12.40;5.18;;;;;;;;;;4963252;28;20049;-69
2023/10/13 17:43:11;;;;;;;13.27;5.32;;;;;;;;;;4963556;28;20033;-69
2023/10/13 17:45:37;;;;;;;13.27;5.50;;;;;;;;;;4964981;28;20118;-69
2023/10/13 17:48:06;;;;;;;13.60;4.95;;;;;;;;;;4961759;28;20288;-66
2023/10/13 17:50:32;;;;;;;11.80;4.93;;;;;;;;;;4967034;28;20451;-70
2023/10/13 17:53:01;;;;;;;11.95;4.80;;;;;;;;;;4978437;28;20420;-67
2023/10/13 17:55:27;;;;;;;10.88;4.40;;;;;;;;;;4962020;28;20565;-67
2023/10/13 17:57:53;;;;;;;12.73;5.35;;;;;;;;;;4964247;28;20602;-67
2023/10/13 18:00:22;;;;;;;16.13;5.00;;;;;;;;;;4956188;28;20532;-68
2023/10/13 18:02:52;;;;;;;16.17;5.25;;;;;;;;;;4959272;28;20552;-67
2023/10/13 18:05:19;;;;;;;15.80;5.40;;;;;;;;;;4954270;28;20515;-67
2023/10/13 18:07:47;;;;;;;14.20;5.63;;;;;;;;;;4963161;28;20030;-67
2023/10/13 18:10:14;;;;;;;13.90;5.43;;;;;;;;;;4958229;28;20487;-67
2023/10/13 18:12:40;;;;;;;15.20;5.95;;;;;;;;;;4963617;28;20030;-67
2023/10/13 18:15:09;;;;;;;14.95;6.22;;;;;;;;;;4961755;28;20136;-68
2023/10/13 18:17:36;;;;;;;13.43;6.07;;;;;;;;;;4959862;28;20026;-67
2023/10/13 18:20:10;;;;;;;14.50;5.90;;;;;;;;;;4976952;28;20136;-68
2023/10/13 18:22:39;;;;;;;16.00;6.20;;;;;;;;;;4965450;28;20469;-68
2023/10/13 18:25:12;;;;;;;14.38;6.00;;;;;;;;;;4960500;28;20073;-68
2023/10/13 18:27:44;;;;;;;13.88;5.65;;;;;;;;;;4960173;28;20034;-69
2023/10/13 18:30:13;;;;;;;13.07;5.90;;;;;;;;;;4960521;28;20066;-68
2023/10/13 18:32:40;;;;;;;21.23;5.95;;;;;;;;;;4963768;28;20441;-68
2023/10/13 18:35:08;;;;;;;12.43;5.80;;;;;;;;;;4957453;28;20038;-68
2023/10/13 18:37:36;;;;;;;15.02;7.38;;;;;;;;;;4960712;28;20053;-68
2023/10/13 18:40:06;;;;;;;14.75;7.28;;;;;;;;;;4962643;28;20185;-68
2023/10/13 18:42:41;;;;;;;12.85;6.60;;;;;;;;;;4977319;28;21247;-69
2023/10/13 18:45:08;;;;;;;14.43;6.72;;;;;;;;;;4964222;28;20357;-68
2023/10/13 18:47:34;;;;;;;15.23;7.07;;;;;;;;;;4980291;28;20037;-67